Time;durP1;ratioP1;P1;durP2;ratioP2;P2;SDS_P1;SDS_P2;PMS_P1;PMS_P2;Temp;Humidity;BMP_temperature;BMP_pressure;BME280_temperature;BME280_humidity;BME280_pressure;Samples;Min_cycle;Max_cycle;Signal;HPM_P1;HPM_P2
2022/01/05 00:01:02;;;;;;;5.00;0.73;;;3.40;99.90;;;;;;4261699;27;20043;-84
2022/01/05 00:03:12;;;;;;;5.60;0.80;;;3.20;99.90;;;;;;4243333;28;20031;-84
2022/01/05 00:05:29;;;;;;;6.55;0.90;;;3.50;99.90;;;;;;4224740;28;20040;-84
2022/01/05 00:07:29;;;;;;;7.05;0.80;;;2.70;99.90;;;;;;4226095;28;20052;-85
2022/01/05 00:09:31;;;;;;;9.68;1.30;;;2.90;99.90;;;;;;4266973;27;20046;-84
2022/01/05 00:11:35;;;;;;;5.68;1.15;;;2.40;99.90;;;;;;4248260;27;20050;-84
2022/01/05 00:13:36;;;;;;;3.90;0.55;;;2.70;99.90;;;;;;4243807;27;20054;-84
2022/01/05 00:15:37;;;;;;;5.03;0.63;;;3.00;99.90;;;;;;4253109;27;20315;-85
2022/01/05 00:17:39;;;;;;;8.63;1.25;;;3.70;99.90;;;;;;4213911;28;20447;-84
2022/01/05 00:19:40;;;;;;;11.55;0.73;;;2.40;99.90;;;;;;4242234;28;20495;-85
2022/01/05 00:21:43;;;;;;;14.70;1.83;;;3.00;99.90;;;;;;4232268;28;20046;-84
2022/01/05 00:23:43;;;;;;;4.85;0.75;;;3.90;99.90;;;;;;4250056;28;20503;-84
2022/01/05 00:25:44;;;;;;;1.33;0.50;;;3.10;99.90;;;;;;4248595;28;20036;-84
2022/01/05 00:27:45;;;;;;;7.65;1.00;;;2.30;99.90;;;;;;4230660;28;20069;-84
2022/01/05 00:29:47;;;;;;;6.75;0.80;;;2.80;99.90;;;;;;4230606;28;20044;-84
2022/01/05 00:31:48;;;;;;;4.82;0.88;;;3.30;99.90;;;;;;4247893;27;20558;-84
2022/01/05 00:33:50;;;;;;;4.93;0.73;;;3.10;99.90;;;;;;4230440;28;20137;-85
2022/01/05 00:35:52;;;;;;;6.13;0.77;;;3.60;99.90;;;;;;4248746;28;20043;-84
2022/01/05 00:37:53;;;;;;;11.43;0.90;;;2.20;99.90;;;;;;4249242;28;20035;-85
2022/01/05 00:39:55;;;;;;;6.55;0.90;;;3.20;99.90;;;;;;4231309;28;20052;-84
2022/01/05 00:41:56;;;;;;;3.55;0.85;;;3.10;99.90;;;;;;4249435;28;20055;-84
2022/01/05 00:43:59;;;;;;;3.40;1.10;;;3.30;99.90;;;;;;4230346;28;20077;-84
2022/01/05 00:46:02;;;;;;;4.05;0.90;;;3.00;99.90;;;;;;4230823;28;20044;-84
2022/01/05 00:48:03;;;;;;;9.90;1.00;;;3.40;99.90;;;;;;4248434;28;20043;-84
2022/01/05 00:50:04;;;;;;;4.20;1.05;;;2.20;99.90;;;;;;4236438;28;20122;-84
2022/01/05 00:52:05;;;;;;;6.00;0.70;;;2.20;99.90;;;;;;4230997;28;20575;-84
2022/01/05 00:54:06;;;;;;;7.78;0.70;;;2.30;99.90;;;;;;4247813;28;20632;-84
2022/01/05 00:56:08;;;;;;;5.95;0.80;;;2.80;99.90;;;;;;4249590;27;20051;-84
2022/01/05 00:58:09;;;;;;;3.15;0.77;;;3.30;99.90;;;;;;4248010;28;20042;-84
2022/01/05 01:00:10;;;;;;;7.57;1.05;;;3.60;99.90;;;;;;4247189;28;20107;-84
2022/01/05 01:02:11;;;;;;;12.13;1.25;;;2.40;99.90;;;;;;4248136;28;20039;-84
2022/01/05 01:04:13;;;;;;;2.55;0.57;;;2.50;99.90;;;;;;4248193;28;20528;-84
2022/01/05 01:06:16;;;;;;;6.32;0.93;;;3.40;99.90;;;;;;4262880;27;20414;-84
2022/01/05 01:08:16;;;;;;;4.82;0.57;;;3.50;99.90;;;;;;4231625;28;20464;-84
2022/01/05 01:10:23;;;;;;;7.10;1.17;;;3.20;99.90;;;;;;4242746;28;20062;-84
2022/01/05 01:12:24;;;;;;;1.92;0.70;;;3.70;99.90;;;;;;4265290;27;20042;-84
2022/01/05 01:14:25;;;;;;;13.15;0.82;;;2.50;99.90;;;;;;4232448;28;20071;-84
2022/01/05 01:16:26;;;;;;;9.18;0.80;;;3.50;99.90;;;;;;4250744;27;20152;-84
2022/01/05 01:18:28;;;;;;;6.05;0.65;;;3.80;99.90;;;;;;4233472;28;20051;-85
2022/01/05 01:20:29;;;;;;;9.07;0.93;;;2.80;99.90;;;;;;4250354;27;20460;-84
2022/01/05 01:22:32;;;;;;;10.13;1.13;;;2.60;99.90;;;;;;4250660;27;20039;-84
2022/01/05 01:24:33;;;;;;;12.93;1.08;;;3.70;99.90;;;;;;4266251;27;20371;-84
2022/01/05 01:26:34;;;;;;;6.47;1.67;;;3.40;99.90;;;;;;4266876;27;20042;-84
2022/01/05 01:28:35;;;;;;;9.95;1.73;;;3.40;99.90;;;;;;4268329;27;20457;-84
2022/01/05 01:30:36;;;;;;;5.60;0.68;;;3.20;99.90;;;;;;4231028;28;20123;-84
2022/01/05 01:32:38;;;;;;;7.05;0.95;;;2.80;99.90;;;;;;4251099;27;20039;-85
2022/01/05 01:34:39;;;;;;;10.07;1.38;;;4.10;99.90;;;;;;4216393;28;20048;-84
2022/01/05 01:36:40;;;;;;;60.70;3.15;;;4.10;99.90;;;;;;4235071;27;20114;-84
2022/01/05 01:38:42;;;;;;;6.97;0.73;;;3.50;99.90;;;;;;4250797;27;20111;-84
2022/01/05 01:40:43;;;;;;;6.07;1.75;;;3.70;99.90;;;;;;4215046;28;20064;-84
2022/01/05 01:42:44;;;;;;;9.95;1.10;;;2.70;99.90;;;;;;4237587;27;20040;-85
2022/01/05 01:44:45;;;;;;;5.68;0.95;;;3.00;99.90;;;;;;4215902;28;20051;-84
2022/01/05 01:46:46;;;;;;;4.88;1.23;;;2.70;99.90;;;;;;4250637;27;20043;-84
2022/01/05 01:48:47;;;;;;;9.40;1.70;;;4.10;99.90;;;;;;4250325;27;20038;-84
2022/01/05 01:50:47;;;;;;;5.88;0.70;;;2.80;99.90;;;;;;4231832;28;20048;-84
2022/01/05 01:52:48;;;;;;;9.25;1.13;;;2.80;99.90;;;;;;4250646;27;20039;-84
2022/01/05 01:54:55;;;;;;;6.47;1.13;;;3.60;99.90;;;;;;4250915;27;20049;-84
2022/01/05 01:56:59;;;;;;;11.30;1.05;;;2.90;99.90;;;;;;4233829;28;20543;-83
2022/01/05 01:59:01;;;;;;;6.50;1.40;;;2.90;99.90;;;;;;4250826;27;20445;-83
2022/01/05 02:01:03;;;;;;;6.45;0.80;;;3.10;99.90;;;;;;4253511;27;20052;-84
2022/01/05 02:03:05;;;;;;;11.88;1.05;;;3.60;99.90;;;;;;4240406;27;20047;-84
2022/01/05 02:05:07;;;;;;;5.63;1.20;;;3.80;99.90;;;;;;4232271;28;20043;-85
2022/01/05 02:07:09;;;;;;;6.43;0.98;;;3.00;99.90;;;;;;4250965;27;20094;-84
2022/01/05 02:09:11;;;;;;;9.85;1.30;;;3.00;99.90;;;;;;4232008;28;20107;-84
2022/01/05 02:11:12;;;;;;;7.57;1.00;;;4.50;99.90;;;;;;4215092;28;20087;-84
2022/01/05 02:13:13;;;;;;;8.25;1.67;;;3.60;99.90;;;;;;4215002;28;20577;-83
2022/01/05 02:15:14;;;;;;;6.00;0.98;;;4.30;99.90;;;;;;4252146;27;20039;-84
2022/01/05 02:17:21;;;;;;;7.38;1.00;;;3.40;99.90;;;;;;4249420;27;20077;-84
2022/01/05 02:19:21;;;;;;;4.95;1.00;;;3.10;99.90;;;;;;4246580;27;20039;-85
2022/01/05 02:21:24;;;;;;;8.85;0.90;;;4.50;99.90;;;;;;4217171;28;20086;-84
2022/01/05 02:23:26;;;;;;;6.45;0.82;;;3.10;99.90;;;;;;4250027;27;20483;-85
2022/01/05 02:25:28;;;;;;;10.02;2.60;;;3.00;99.90;;;;;;4249148;27;20050;-84
2022/01/05 02:27:28;;;;;;;11.65;1.05;;;4.00;99.90;;;;;;4215285;28;20512;-84
2022/01/05 02:29:30;;;;;;;11.57;1.17;;;3.80;99.90;;;;;;4249007;27;20140;-85
2022/01/05 02:31:32;;;;;;;7.68;1.00;;;4.40;99.90;;;;;;4231612;28;20048;-85
2022/01/05 02:33:33;;;;;;;6.50;1.05;;;4.50;99.90;;;;;;4231308;28;20115;-85
2022/01/05 02:35:35;;;;;;;11.30;1.02;;;3.10;99.90;;;;;;4249273;27;20042;-84
2022/01/05 02:37:49;;;;;;;6.97;0.70;;;4.00;99.90;;;;;;4259796;27;20034;-85
2022/01/05 02:39:51;;;;;;;7.57;0.98;;;3.50;99.90;;;;;;4231475;28;20043;-85
2022/01/05 02:41:52;;;;;;;7.68;1.48;;;3.50;99.90;;;;;;4249736;27;20506;-85
2022/01/05 02:43:54;;;;;;;9.70;1.20;;;3.20;99.90;;;;;;4231825;28;20048;-84
2022/01/05 02:45:55;;;;;;;7.85;1.15;;;3.80;99.90;;;;;;4215010;28;20051;-84
2022/01/05 02:47:55;;;;;;;7.25;1.38;;;3.20;99.90;;;;;;4214796;28;20039;-85
2022/01/05 02:50:00;;;;;;;11.85;1.17;;;4.40;99.90;;;;;;4215039;28;20055;-85
2022/01/05 02:52:00;;;;;;;9.68;0.90;;;2.50;99.90;;;;;;4231923;28;20039;-85
2022/01/05 02:54:02;;;;;;;9.48;2.05;;;3.70;99.90;;;;;;4253050;27;20035;-84
2022/01/05 02:56:03;;;;;;;11.45;1.17;;;3.30;99.90;;;;;;4253272;27;20133;-85
2022/01/05 02:58:05;;;;;;;7.55;1.38;;;3.30;99.90;;;;;;4248719;27;20457;-85
2022/01/05 03:00:08;;;;;;;7.68;1.30;;;4.70;99.90;;;;;;4248880;27;20429;-84
2022/01/05 03:02:09;;;;;;;17.42;1.52;;;3.30;99.90;;;;;;4248435;27;20051;-84
2022/01/05 03:04:11;;;;;;;4.80;1.52;;;3.30;99.90;;;;;;4231521;28;20403;-85
2022/01/05 03:06:12;;;;;;;8.05;1.45;;;2.80;99.90;;;;;;4247924;27;20045;-85
2022/01/05 03:08:14;;;;;;;8.23;1.70;;;3.40;99.90;;;;;;4248001;27;20043;-85
2022/01/05 03:10:15;;;;;;;15.40;1.25;;;4.00;99.90;;;;;;4247938;27;20046;-84
2022/01/05 03:12:18;;;;;;;7.65;0.98;;;4.00;99.90;;;;;;4264258;27;20516;-85
2022/01/05 03:14:20;;;;;;;15.05;1.63;;;3.60;99.90;;;;;;4247122;27;20043;-84
2022/01/05 03:16:24;;;;;;;11.07;1.95;;;4.40;99.90;;;;;;4230635;28;20055;-85
2022/01/05 03:18:26;;;;;;;11.73;2.05;;;4.50;99.90;;;;;;4246669;27;20065;-85
2022/01/05 03:20:29;;;;;;;4.80;0.90;;;4.50;99.90;;;;;;4265494;27;20088;-85
2022/01/05 03:22:31;;;;;;;10.90;1.30;;;3.60;99.90;;;;;;4230555;28;20502;-85
2022/01/05 03:24:35;;;;;;;11.00;2.00;;;4.40;99.90;;;;;;4247109;27;20480;-85
2022/01/05 03:26:39;;;;;;;5.55;0.93;;;3.60;99.90;;;;;;4265193;27;20043;-85
2022/01/05 03:28:40;;;;;;;13.38;2.10;;;3.90;99.90;;;;;;4228827;28;20093;-85
2022/01/05 03:30:42;;;;;;;6.35;0.77;;;3.50;99.90;;;;;;4233463;27;20059;-84
2022/01/05 03:34:52;;;;;;;5.47;1.88;;;3.40;99.90;;;;;;4247922;27;20050;-85
2022/01/05 03:36:56;;;;;;;5.53;0.90;;;4.50;99.90;;;;;;4264950;27;20045;-84
2022/01/05 03:38:57;;;;;;;9.13;1.00;;;3.90;99.90;;;;;;4247962;27;20039;-84
2022/01/05 03:40:58;;;;;;;7.38;1.55;;;4.60;99.90;;;;;;4247270;27;20545;-84
2022/01/05 03:42:59;;;;;;;17.92;1.25;;;3.40;99.90;;;;;;4265412;27;20069;-84
2022/01/05 03:45:00;;;;;;;5.75;0.85;;;4.40;99.90;;;;;;4247675;27;20063;-85
2022/01/05 03:47:02;;;;;;;3.45;0.60;;;3.40;99.90;;;;;;4260067;27;20034;-84
2022/01/05 03:49:03;;;;;;;5.40;1.02;;;3.40;99.90;;;;;;4222362;28;20126;-84
2022/01/05 03:51:04;;;;;;;8.80;1.60;;;4.30;99.90;;;;;;4230357;28;20055;-84
2022/01/05 03:53:06;;;;;;;4.80;1.10;;;3.90;99.90;;;;;;4230301;28;20176;-84
2022/01/05 03:55:07;;;;;;;6.30;0.93;;;3.90;99.90;;;;;;4230060;28;20403;-84
2022/01/05 03:57:08;;;;;;;6.22;1.75;;;3.30;99.90;;;;;;4213479;28;20047;-84
2022/01/05 03:59:10;;;;;;;6.07;1.08;;;3.90;99.90;;;;;;4248678;27;20497;-84
2022/01/05 04:01:11;;;;;;;4.90;0.65;;;3.30;99.90;;;;;;4230981;28;20040;-84
2022/01/05 04:03:13;;;;;;;7.55;1.10;;;3.90;99.90;;;;;;4248489;27;20071;-84
2022/01/05 04:05:14;;;;;;;7.65;1.60;;;3.40;99.90;;;;;;4231808;28;20091;-84
2022/01/05 04:07:16;;;;;;;6.07;0.70;;;3.40;99.90;;;;;;4256567;27;20039;-84
2022/01/05 04:09:16;;;;;;;6.43;0.93;;;2.90;99.90;;;;;;4247070;27;20399;-84
2022/01/05 04:11:18;;;;;;;8.15;1.15;;;3.40;99.90;;;;;;4230453;28;20225;-85
2022/01/05 04:13:20;;;;;;;3.30;0.68;;;4.00;99.90;;;;;;4265287;27;20050;-85
2022/01/05 04:15:22;;;;;;;5.95;1.17;;;4.70;99.90;;;;;;4230013;28;20409;-85
2022/01/05 04:17:23;;;;;;;5.78;0.63;;;4.20;99.90;;;;;;4265850;27;20047;-85
2022/01/05 04:19:24;;;;;;;4.32;1.20;;;4.70;99.90;;;;;;4229891;28;20123;-85
2022/01/05 04:21:25;;;;;;;8.43;0.93;;;3.60;99.90;;;;;;4265709;27;20102;-84
2022/01/05 04:23:26;;;;;;;6.93;0.93;;;4.30;99.90;;;;;;4246404;28;20487;-84
2022/01/05 04:25:27;;;;;;;9.30;1.00;;;3.80;99.90;;;;;;4262871;27;20127;-85
2022/01/05 04:27:27;;;;;;;3.35;0.57;;;3.30;99.90;;;;;;4265590;27;20042;-85
2022/01/05 04:29:28;;;;;;;8.95;0.73;;;4.30;99.90;;;;;;4265310;27;20501;-85
2022/01/05 04:31:30;;;;;;;8.50;1.00;;;4.10;99.90;;;;;;4255640;27;20050;-85
2022/01/05 04:33:30;;;;;;;3.85;0.80;;;4.50;99.90;;;;;;4230024;28;20546;-85
2022/01/05 04:35:31;;;;;;;5.45;1.02;;;3.90;99.90;;;;;;4230533;28;20039;-85
2022/01/05 04:37:33;;;;;;;9.10;0.85;;;3.30;99.90;;;;;;4258453;27;20125;-85
2022/01/05 04:39:35;;;;;;;4.32;0.60;;;3.30;99.90;;;;;;4244855;28;20057;-85
2022/01/05 04:41:35;;;;;;;8.75;0.75;;;3.30;99.90;;;;;;4259545;27;20503;-85
2022/01/05 04:43:36;;;;;;;1.85;0.50;;;4.40;99.90;;;;;;4248371;27;20050;-85
2022/01/05 04:45:37;;;;;;;2.00;0.57;;;;;;;;;;4213615;28;20048;-85
2022/01/05 04:47:38;;;;;;;5.53;0.77;;;3.30;99.90;;;;;;4212802;28;20056;-84
2022/01/05 04:49:39;;;;;;;4.53;0.80;;;4.60;99.90;;;;;;4251151;27;20031;-85
2022/01/05 04:51:41;;;;;;;3.75;0.60;;;3.30;99.90;;;;;;4233293;28;20052;-84
2022/01/05 04:53:43;;;;;;;4.70;0.73;;;3.50;99.90;;;;;;4233723;28;20187;-85
2022/01/05 04:55:44;;;;;;;5.38;0.80;;;3.30;99.90;;;;;;4251324;27;20090;-85
2022/01/05 04:57:45;;;;;;;3.83;0.90;;;3.30;99.90;;;;;;4251137;27;20043;-85
2022/01/05 04:59:46;;;;;;;6.50;0.80;;;4.40;99.90;;;;;;4215876;28;20047;-85
2022/01/05 05:01:48;;;;;;;6.13;0.88;;;3.70;99.90;;;;;;4253773;27;20534;-85
2022/01/05 05:03:50;;;;;;;4.60;0.75;;;4.70;99.90;;;;;;4251740;27;20055;-85
2022/01/05 05:05:52;;;;;;;12.07;1.42;;;4.60;99.90;;;;;;4251350;27;20360;-85
2022/01/05 05:07:54;;;;;;;6.90;0.77;;;3.90;99.90;;;;;;4228681;28;20048;-85
2022/01/05 05:09:55;;;;;;;9.25;1.30;;;4.10;99.90;;;;;;4233153;28;20424;-85
2022/01/05 05:11:56;;;;;;;5.85;0.95;;;3.40;99.90;;;;;;4250636;27;20088;-85
2022/01/05 05:13:57;;;;;;;8.30;0.80;;;3.90;99.90;;;;;;4229569;28;20048;-85
2022/01/05 05:15:58;;;;;;;7.22;1.15;;;3.80;99.90;;;;;;4250576;27;20486;-86
2022/01/05 05:17:58;;;;;;;15.27;1.42;;;4.90;99.90;;;;;;4234969;27;20549;-86
2022/01/05 05:20:00;;;;;;;6.40;2.50;;;4.20;99.90;;;;;;4250789;27;20035;-86
2022/01/05 05:22:02;;;;;;;6.28;0.95;;;4.60;99.90;;;;;;4250723;27;20494;-86
2022/01/05 05:24:04;;;;;;;6.03;0.98;;;3.60;99.90;;;;;;4232268;28;20101;-86
2022/01/05 05:26:05;;;;;;;13.20;1.83;;;3.60;99.90;;;;;;4215586;28;20068;-86
2022/01/05 05:28:07;;;;;;;7.18;1.10;;;2.70;99.90;;;;;;4215413;28;20401;-86
2022/01/05 05:30:09;;;;;;;7.25;1.20;;;3.90;99.90;;;;;;4215387;28;20127;-86
2022/01/05 05:32:11;;;;;;;5.95;1.35;;;3.60;99.90;;;;;;4232066;27;20385;-86
2022/01/05 05:34:11;;;;;;;16.05;1.42;;;4.10;99.90;;;;;;4235555;27;20051;-86
2022/01/05 05:36:13;;;;;;;14.48;1.60;;;4.30;99.90;;;;;;4243274;27;20062;-86
2022/01/05 05:38:15;;;;;;;9.10;0.93;;;3.70;99.90;;;;;;4251436;27;20079;-85
2022/01/05 05:40:16;;;;;;;7.97;1.13;;;4.50;99.90;;;;;;4231935;28;20130;-86
2022/01/05 05:42:17;;;;;;;7.53;0.90;;;3.70;99.90;;;;;;4233171;28;20387;-86
2022/01/05 05:44:18;;;;;;;9.20;1.42;;;4.00;99.90;;;;;;4215279;28;20051;-86
2022/01/05 05:46:19;;;;;;;6.22;1.30;;;3.70;99.90;;;;;;4215728;28;20131;-86
2022/01/05 05:48:20;;;;;;;2.67;0.45;;;4.50;99.90;;;;;;4232382;28;20494;-86
2022/01/05 05:50:21;;;;;;;10.23;2.08;;;4.70;99.90;;;;;;4247866;27;20050;-86
2022/01/05 05:52:22;;;;;;;4.72;0.80;;;3.60;99.90;;;;;;4231652;28;20051;-86
2022/01/05 05:54:25;;;;;;;4.72;1.13;;;3.40;99.90;;;;;;4234143;27;20046;-86
2022/01/05 05:56:26;;;;;;;6.18;0.70;;;4.30;99.90;;;;;;4233174;28;20044;-86
2022/01/05 05:58:26;;;;;;;8.10;0.80;;;3.50;99.90;;;;;;4215772;28;20062;-85
2022/01/05 06:00:29;;;;;;;5.32;0.60;;;2.20;99.90;;;;;;4233665;27;20043;-86
2022/01/05 06:02:31;;;;;;;4.25;0.93;;;4.20;99.90;;;;;;4248136;27;20468;-86
2022/01/05 06:04:32;;;;;;;6.70;0.85;;;3.00;99.90;;;;;;4252419;27;20406;-85
2022/01/05 06:06:33;;;;;;;5.82;0.80;;;3.60;99.90;;;;;;4252608;27;20050;-86
2022/01/05 06:08:35;;;;;;;6.40;0.90;;;3.30;99.90;;;;;;4251899;27;20035;-86
2022/01/05 06:10:37;;;;;;;11.90;2.65;;;3.30;99.90;;;;;;4248758;27;20507;-86
2022/01/05 06:12:38;;;;;;;3.15;1.02;;;4.40;99.90;;;;;;4249113;27;20404;-86
2022/01/05 06:14:40;;;;;;;5.65;0.70;;;4.70;99.90;;;;;;4250558;27;20050;-86
2022/01/05 06:16:43;;;;;;;8.18;0.90;;;4.60;99.90;;;;;;4230941;28;20044;-86
2022/01/05 06:18:44;;;;;;;12.82;1.00;;;3.60;99.90;;;;;;4243811;27;20058;-85
2022/01/05 06:20:46;;;;;;;7.63;1.42;;;3.50;99.90;;;;;;4231799;28;20510;-86
2022/01/05 06:22:47;;;;;;;8.35;0.93;;;4.50;99.90;;;;;;4249732;27;20049;-86
2022/01/05 06:24:48;;;;;;;8.48;0.90;;;3.50;99.90;;;;;;4249470;27;20039;-85
2022/01/05 06:26:50;;;;;;;13.40;1.55;;;3.70;99.90;;;;;;4248566;27;20547;-85
2022/01/05 06:28:51;;;;;;;11.15;1.02;;;2.70;99.90;;;;;;4248589;27;20075;-86
2022/01/05 06:30:52;;;;;;;3.63;0.80;;;3.60;99.90;;;;;;4248570;27;20545;-86
2022/01/05 06:32:52;;;;;;;6.78;0.95;;;3.70;99.90;;;;;;4247689;27;20047;-86
2022/01/05 06:34:54;;;;;;;8.70;0.77;;;3.70;99.90;;;;;;4247064;27;20047;-85
2022/01/05 06:36:55;;;;;;;10.93;1.45;;;4.70;99.90;;;;;;4236760;27;20047;-86
2022/01/05 06:38:57;;;;;;;8.43;1.75;;;4.00;99.90;;;;;;4217230;28;20110;-85
2022/01/05 06:40:58;;;;;;;10.63;1.13;;;3.80;99.90;;;;;;4231513;28;20120;-85
2022/01/05 06:43:03;;;;;;;18.20;1.90;;;3.90;99.90;;;;;;4219495;28;20056;-86
2022/01/05 06:45:07;;;;;;;13.70;1.25;;;3.90;99.90;;;;;;4214534;28;20043;-86
2022/01/05 06:47:08;;;;;;;9.63;1.33;;;3.50;99.90;;;;;;4214489;28;20432;-85
2022/01/05 06:49:10;;;;;;;9.63;1.45;;;3.70;99.90;;;;;;4237434;27;20046;-85
2022/01/05 06:51:11;;;;;;;10.38;2.38;;;3.90;99.90;;;;;;4231152;28;20095;-85
2022/01/05 06:53:14;;;;;;;9.77;1.30;;;3.90;99.90;;;;;;4247616;27;20043;-85
2022/01/05 06:55:15;;;;;;;18.17;2.45;;;3.90;99.90;;;;;;4246461;27;20062;-86
2022/01/05 06:57:17;;;;;;;8.60;1.10;;;4.30;99.90;;;;;;4235975;27;20043;-86
2022/01/05 06:59:20;;;;;;;14.18;1.42;;;4.90;99.90;;;;;;4232071;28;20036;-86
2022/01/05 07:01:24;;;;;;;7.70;2.25;;;4.60;99.90;;;;;;4230951;28;20044;-86
2022/01/05 07:03:25;;;;;;;3.38;0.50;;;5.30;99.90;;;;;;4214064;28;20044;-86
2022/01/05 07:05:30;;;;;;;10.60;1.08;;;4.90;99.90;;;;;;4213729;28;20055;-86
2022/01/05 07:07:31;;;;;;;6.70;1.40;;;4.70;99.90;;;;;;4223286;28;20577;-86
2022/01/05 07:09:32;;;;;;;4.45;0.93;;;5.30;99.90;;;;;;4247511;27;20039;-86
2022/01/05 07:11:35;;;;;;;6.63;2.08;;;5.10;99.90;;;;;;4246844;27;20031;-86
2022/01/05 07:13:39;;;;;;;9.85;1.08;;;5.20;99.90;;;;;;4237982;27;20031;-86
2022/01/05 07:15:40;;;;;;;6.65;1.40;;;4.20;99.90;;;;;;4231343;28;20136;-86
2022/01/05 07:17:41;;;;;;;1.77;0.90;;;5.10;99.90;;;;;;4232136;28;20031;-85
2022/01/05 07:19:45;;;;;;;6.93;1.42;;;3.30;99.90;;;;;;4232284;28;20050;-85
2022/01/05 07:21:49;;;;;;;6.05;0.68;;;4.10;99.90;;;;;;4231744;28;20039;-85
2022/01/05 07:23:50;;;;;;;3.00;0.65;;;4.10;99.90;;;;;;4230234;28;20149;-85
2022/01/05 07:25:53;;;;;;;4.20;0.52;;;4.30;99.90;;;;;;4225604;28;20047;-85
2022/01/05 07:27:54;;;;;;;1.63;0.57;;;5.30;99.90;;;;;;4230514;28;20080;-85
2022/01/05 07:29:55;;;;;;;8.93;1.13;;;4.00;99.90;;;;;;4234274;27;20204;-85
2022/01/05 07:31:55;;;;;;;9.35;1.45;;;4.00;99.90;;;;;;4230120;27;20050;-85
2022/01/05 07:33:56;;;;;;;4.15;0.93;;;4.80;99.90;;;;;;4243655;27;20035;-85
2022/01/05 07:35:58;;;;;;;8.95;0.73;;;4.20;99.90;;;;;;4217164;28;20120;-86
2022/01/05 07:37:59;;;;;;;4.78;0.77;;;4.00;99.90;;;;;;4231245;28;20116;-85
2022/01/05 07:39:59;;;;;;;7.50;1.05;;;4.10;99.90;;;;;;4213080;28;20098;-85
2022/01/05 07:42:00;;;;;;;6.57;1.33;;;5.40;99.90;;;;;;4211914;28;20561;-85
2022/01/05 07:44:02;;;;;;;8.38;0.80;;;3.90;99.90;;;;;;4243970;28;20562;-85
2022/01/05 07:46:04;;;;;;;5.35;0.80;;;5.10;99.90;;;;;;4248549;27;20051;-85
2022/01/05 07:48:05;;;;;;;3.03;0.52;;;4.10;99.90;;;;;;4230184;28;20468;-85
2022/01/05 07:50:14;;;;;;;8.25;0.95;;;4.10;99.90;;;;;;4235873;28;20088;-85
2022/01/05 07:52:17;;;;;;;4.57;0.68;;;4.20;99.90;;;;;;4231641;28;20043;-85
2022/01/05 07:54:18;;;;;;;11.90;1.25;;;4.20;99.90;;;;;;4213647;28;20587;-85
2022/01/05 07:56:19;;;;;;;4.80;0.50;;;5.30;99.90;;;;;;4231154;28;20047;-85
2022/01/05 07:58:23;;;;;;;2.63;0.52;;;4.20;99.90;;;;;;4230992;28;20070;-86
2022/01/05 08:00:24;;;;;;;7.95;0.60;;;4.60;99.90;;;;;;4214883;28;20040;-85
2022/01/05 08:02:25;;;;;;;2.13;0.50;;;4.20;99.90;;;;;;4215702;28;20570;-85
2022/01/05 08:04:26;;;;;;;4.15;0.55;;;4.80;99.90;;;;;;4233109;28;20048;-85
2022/01/05 08:06:28;;;;;;;5.43;0.68;;;5.30;99.90;;;;;;4232278;28;20054;-85
2022/01/05 08:08:30;;;;;;;6.88;0.50;;;4.40;99.90;;;;;;4231277;28;20063;-86
2022/01/05 08:10:31;;;;;;;3.60;0.75;;;5.20;99.90;;;;;;4231290;28;20086;-85
2022/01/05 08:12:32;;;;;;;10.95;1.33;;;4.60;99.90;;;;;;4248025;28;20403;-85
2022/01/05 08:14:33;;;;;;;6.00;1.40;;;4.60;99.90;;;;;;4246365;28;20039;-85
2022/01/05 08:16:36;;;;;;;4.32;0.40;;;3.90;99.90;;;;;;4246732;28;20186;-85
2022/01/05 08:18:37;;;;;;;4.65;0.50;;;5.70;99.90;;;;;;4227501;28;20491;-86
2022/01/05 08:20:39;;;;;;;4.00;0.57;;;5.70;99.90;;;;;;4229125;28;20564;-85
2022/01/05 08:22:45;;;;;;;7.13;0.55;;;4.60;99.90;;;;;;4232477;28;20081;-86
2022/01/05 08:24:46;;;;;;;5.43;0.43;;;4.60;99.90;;;;;;4231360;28;20487;-86
2022/01/05 08:26:47;;;;;;;5.38;0.60;;;4.60;99.90;;;;;;4229117;28;20063;-86
2022/01/05 08:28:48;;;;;;;6.05;0.57;;;4.60;99.90;;;;;;4230323;28;20085;-86
2022/01/05 08:30:49;;;;;;;6.57;0.60;;;5.90;99.90;;;;;;4211236;28;20052;-85
2022/01/05 08:32:53;;;;;;;8.20;0.73;;;6.00;99.90;;;;;;4215389;28;20423;-86
2022/01/05 08:34:56;;;;;;;7.00;0.60;;;4.20;99.90;;;;;;4231781;28;20495;-86
2022/01/05 08:36:58;;;;;;;8.18;0.77;;;4.80;99.90;;;;;;4213150;28;20048;-86
2022/01/05 08:38:59;;;;;;;6.47;1.00;;;5.30;99.90;;;;;;4244490;28;20032;-86
2022/01/05 08:40:59;;;;;;;9.63;0.85;;;5.10;99.90;;;;;;4208400;28;1179861;-87
2022/01/05 08:43:01;;;;;;;4.18;0.68;;;4.70;99.90;;;;;;4237005;28;20511;-87
2022/01/05 08:45:03;;;;;;;5.97;0.60;;;4.00;99.90;;;;;;4240506;28;20042;-87
2022/01/05 08:47:05;;;;;;;9.45;0.95;;;4.70;99.90;;;;;;4240389;28;20122;-87
2022/01/05 08:49:05;;;;;;;9.90;1.73;;;4.70;99.90;;;;;;4214232;28;20086;-87
2022/01/05 08:51:06;;;;;;;5.63;0.70;;;4.70;99.90;;;;;;4235845;28;20039;-85
2022/01/05 08:53:10;;;;;;;11.93;1.83;;;5.50;99.90;;;;;;4237293;28;20039;-86
2022/01/05 08:55:12;;;;;;;10.10;1.00;;;6.00;99.90;;;;;;4224052;28;20079;-86
2022/01/05 08:57:14;;;;;;;4.82;1.00;;;5.30;99.90;;;;;;4224661;28;20052;-85
2022/01/05 08:59:16;;;;;;;5.80;1.40;;;5.80;99.90;;;;;;4224161;28;20109;-86
2022/01/05 09:01:17;;;;;;;9.93;1.20;;;6.10;99.90;;;;;;4238066;28;20051;-86
2022/01/05 09:03:20;;;;;;;8.20;0.93;;;6.00;99.90;;;;;;4229100;28;20047;-86
2022/01/05 09:05:21;;;;;;;6.60;0.82;;;5.10;99.90;;;;;;4252830;28;20104;-86
2022/01/05 09:07:22;;;;;;;6.68;1.48;;;6.30;99.90;;;;;;4251131;27;20122;-85
2022/01/05 09:09:24;;;;;;;11.07;1.35;;;6.30;99.90;;;;;;4236859;28;20062;-85
2022/01/05 09:11:27;;;;;;;9.65;1.08;;;6.10;99.90;;;;;;4241861;28;20039;-85
2022/01/05 09:13:29;;;;;;;4.78;0.75;;;5.40;99.90;;;;;;4240022;28;20503;-85
2022/01/05 09:15:32;;;;;;;13.45;1.45;;;6.10;99.90;;;;;;4239860;28;20043;-85
2022/01/05 09:17:34;;;;;;;5.43;0.55;;;5.90;99.90;;;;;;4231178;28;20044;-85
2022/01/05 09:19:35;;;;;;;10.90;0.88;;;5.30;99.90;;;;;;4242663;28;20122;-88
2022/01/05 09:21:36;;;;;;;8.77;1.70;;;6.10;99.90;;;;;;4240410;27;20048;-86
2022/01/05 09:23:37;;;;;;;10.48;1.13;;;6.30;99.90;;;;;;4233486;28;20039;-87
2022/01/05 09:25:39;;;;;;;6.03;0.70;;;5.40;99.90;;;;;;4230667;28;20032;-86
2022/01/05 09:27:40;;;;;;;9.13;1.17;;;6.40;99.90;;;;;;4236935;28;20132;-86
2022/01/05 09:29:41;;;;;;;9.50;0.75;;;5.40;99.90;;;;;;4239175;28;20126;-87
2022/01/05 09:31:44;;;;;;;13.88;1.42;;;6.80;99.90;;;;;;4217726;28;20044;-87
2022/01/05 09:33:44;;;;;;;6.43;1.60;;;6.30;99.90;;;;;;4229417;28;20109;-86
2022/01/05 09:35:48;;;;;;;8.65;1.38;;;7.20;99.90;;;;;;4238556;27;20051;-87
2022/01/05 09:38:08;;;;;;;10.75;0.70;;;7.90;99.90;;;;;;4248919;27;20085;-86
2022/01/05 09:42:30;;;;;;;10.20;1.23;;;7.50;99.90;;;;;;4251493;27;20120;-85
2022/01/05 09:44:42;;;;;;;15.20;1.80;;;7.40;99.90;;;;;;4235384;27;20043;-86
2022/01/05 09:47:10;;;;;;;8.75;1.10;;;7.20;99.90;;;;;;4245870;27;20039;-86
2022/01/05 09:49:33;;;;;;;15.77;1.67;;;7.00;99.90;;;;;;4217044;28;20042;-86
2022/01/05 09:51:37;;;;;;;7.75;1.05;;;7.00;99.90;;;;;;4214584;28;20048;-86
2022/01/05 09:53:38;;;;;;;17.27;2.72;;;7.00;99.90;;;;;;4240594;27;20050;-86
2022/01/05 09:55:39;;;;;;;9.40;1.00;;;6.80;99.90;;;;;;4266227;27;20479;-86
2022/01/05 09:57:43;;;;;;;7.47;0.90;;;7.00;99.90;;;;;;4248908;27;20145;-86
2022/01/05 09:59:47;;;;;;;15.93;1.63;;;7.50;99.90;;;;;;4217746;28;20055;-86
2022/01/05 10:01:48;;;;;;;12.93;1.15;;;7.40;99.90;;;;;;4232025;28;20044;-86
2022/01/05 10:03:49;;;;;;;7.13;1.58;;;7.30;99.90;;;;;;4249182;27;20126;-87
2022/01/05 10:05:50;;;;;;;16.92;1.70;;;7.40;99.90;;;;;;4243126;27;20049;-86
2022/01/05 10:07:54;;;;;;;15.35;1.73;;;7.40;99.90;;;;;;4258283;27;20127;-87
2022/01/05 10:09:55;;;;;;;7.18;0.90;;;7.80;99.90;;;;;;4251271;27;20108;-86
2022/01/05 10:11:56;;;;;;;27.85;1.92;;;7.50;99.90;;;;;;4235777;28;20503;-86
2022/01/05 10:13:56;;;;;;;14.63;2.13;;;7.70;99.90;;;;;;4248832;27;20051;-87
2022/01/05 10:15:57;;;;;;;12.65;1.55;;;8.50;99.90;;;;;;4247918;27;20121;-86
2022/01/05 10:18:11;;;;;;;13.30;1.55;;;8.00;99.90;;;;;;4251940;27;20447;-86
2022/01/05 10:20:12;;;;;;;12.45;1.50;;;8.10;99.90;;;;;;4250896;27;20055;-86
2022/01/05 10:22:34;;;;;;;15.25;2.17;;;8.30;99.90;;;;;;4267041;27;20034;-86
2022/01/05 10:24:44;;;;;;;6.53;1.45;;;8.50;99.90;;;;;;4233760;28;20399;-86
2022/01/05 10:26:44;;;;;;;10.10;1.25;;;8.60;99.90;;;;;;4251364;27;20075;-86
2022/01/05 10:28:46;;;;;;;14.60;1.67;;;8.90;99.90;;;;;;4251178;27;20065;-86
2022/01/05 10:30:49;;;;;;;8.48;1.75;;;8.70;99.90;;;;;;4254279;27;20042;-87
2022/01/05 10:32:54;;;;;;;13.10;1.90;;;9.30;99.90;;;;;;4232430;28;20046;-86
2022/01/05 10:34:59;;;;;;;9.10;1.60;;;9.00;99.90;;;;;;4232726;28;20180;-87
2022/01/05 10:37:05;;;;;;;12.40;1.17;;;9.00;99.90;;;;;;4226435;28;20068;-86
2022/01/05 10:39:07;;;;;;;11.70;1.17;;;9.20;99.90;;;;;;4232170;28;20056;-86
2022/01/05 10:41:20;;;;;;;9.15;1.33;;;9.10;99.90;;;;;;4232558;28;20088;-86
2022/01/05 10:43:21;;;;;;;10.85;1.15;;;9.10;99.90;;;;;;4251868;27;20031;-87
2022/01/05 10:45:47;;;;;;;18.17;2.25;;;9.20;99.90;;;;;;4215072;28;20089;-86
2022/01/05 10:48:04;;;;;;;15.77;2.65;;;8.90;99.90;;;;;;4231935;28;20118;-86